createdAt,value
2018-01-16T00:02:09.316Z,96.41
2018-01-16T00:04:40.085Z,96.50
2018-01-16T00:07:10.888Z,96.38
2018-01-16T00:09:41.640Z,96.30
2018-01-16T00:12:12.401Z,96.51
2018-01-16T00:14:43.152Z,96.26
2018-01-16T00:17:13.940Z,96.43
2018-01-16T00:19:44.765Z,96.56
2018-01-16T00:22:28.043Z,96.42
2018-01-16T00:24:58.888Z,96.33
2018-01-16T00:27:29.696Z,96.41
2018-01-16T00:30:00.481Z,96.09
2018-01-16T00:32:31.216Z,96.26
2018-01-16T00:35:01.970Z,96.21
2018-01-16T00:37:32.703Z,96.46
2018-01-16T00:40:03.485Z,96.40
2018-01-16T00:42:34.268Z,96.55
2018-01-16T00:45:05.028Z,96.60
2018-01-16T00:47:35.768Z,96.49
2018-01-16T00:50:06.600Z,96.63
2018-01-16T00:52:37.348Z,96.67
2018-01-16T00:55:08.121Z,96.52
2018-01-16T00:57:38.920Z,96.34
2018-01-16T01:00:09.668Z,96.31
2018-01-16T01:02:40.409Z,96.33
2018-01-16T01:05:11.163Z,96.11
2018-01-16T01:07:44.017Z,96.25
2018-01-16T01:10:14.770Z,96.31
2018-01-16T01:12:45.609Z,96.34
2018-01-16T01:15:16.364Z,96.54
2018-01-16T01:17:47.118Z,96.40
2018-01-16T01:20:18.163Z,96.21
2018-01-16T01:22:48.908Z,96.45
2018-01-16T01:25:19.729Z,96.22
2018-01-16T01:27:50.505Z,96.57
2018-01-16T01:30:21.270Z,96.48
2018-01-16T01:32:52.017Z,96.68
2018-01-16T01:35:22.923Z,96.56
2018-01-16T01:37:53.687Z,96.57
2018-01-16T01:40:24.469Z,96.38
2018-01-16T01:42:55.235Z,96.46
2018-01-16T01:45:26.209Z,96.61
2018-01-16T01:47:57.104Z,96.34
2018-01-16T01:50:27.864Z,96.24
2018-01-16T01:52:58.591Z,96.38
2018-01-16T01:55:29.360Z,96.77
2018-01-16T01:58:00.118Z,97.26
2018-01-16T02:00:30.892Z,97.46
2018-01-16T02:03:01.644Z,97.33
2018-01-16T02:05:32.474Z,97.40
2018-01-16T02:08:04.280Z,97.20
2018-01-16T02:10:35.061Z,97.33
2018-01-16T02:13:05.854Z,97.25
2018-01-16T02:15:36.612Z,97.08
2018-01-16T02:18:07.339Z,97.09
2018-01-16T02:20:38.117Z,97.04
2018-01-16T02:23:08.856Z,96.92
2018-01-16T02:25:39.612Z,96.61
2018-01-16T02:28:10.364Z,96.80
2018-01-16T02:30:41.124Z,96.76
2018-01-16T02:33:11.853Z,96.81
2018-01-16T02:35:49.623Z,96.77
2018-01-16T02:38:20.364Z,96.72
2018-01-16T02:40:51.168Z,96.78
2018-01-16T02:43:21.917Z,96.74
2018-01-16T02:45:52.687Z,96.75
2018-01-16T02:48:23.516Z,96.73
2018-01-16T02:50:54.283Z,96.78
2018-01-16T02:53:25.015Z,96.69
2018-01-16T02:55:55.779Z,96.46
2018-01-16T02:58:26.541Z,96.47
2018-01-16T03:00:57.306Z,96.55
2018-01-16T03:03:28.062Z,96.48
2018-01-16T03:05:58.840Z,96.50
2018-01-16T03:08:29.592Z,96.41
2018-01-16T03:11:00.412Z,96.26
2018-01-16T03:13:31.162Z,96.23
2018-01-16T03:16:01.938Z,96.33
2018-01-16T03:18:32.703Z,96.25
2018-01-16T03:21:03.476Z,96.38
2018-01-16T03:23:34.232Z,96.33
2018-01-16T03:26:05.080Z,96.27
2018-01-16T03:28:35.832Z,96.32
2018-01-16T03:31:06.607Z,96.32
2018-01-16T03:33:37.344Z,96.30
2018-01-16T03:36:08.124Z,96.30
2018-01-16T03:38:38.908Z,96.58
2018-01-16T03:41:09.677Z,96.80
2018-01-16T03:43:40.412Z,96.69
2018-01-16T03:46:11.212Z,96.73
2018-01-16T03:48:42.116Z,96.68
2018-01-16T03:51:12.929Z,96.48
2018-01-16T03:53:43.676Z,96.51
2018-01-16T03:56:14.441Z,96.41
2018-01-16T03:58:45.194Z,96.61
2018-01-16T04:01:16.156Z,96.61
2018-01-16T04:03:46.904Z,96.66
2018-01-16T04:06:17.669Z,96.69
2018-01-16T04:08:48.436Z,96.79
2018-01-16T04:11:19.205Z,96.81
2018-01-16T04:13:49.944Z,96.91
2018-01-16T04:16:20.708Z,97.28
2018-01-16T04:18:51.498Z,97.09
2018-01-16T04:21:22.295Z,97.34
2018-01-16T04:23:53.024Z,97.24
2018-01-16T04:26:23.798Z,97.32
2018-01-16T04:28:54.530Z,97.35
2018-01-16T04:31:25.293Z,97.35
2018-01-16T04:33:56.060Z,97.41
2018-01-16T04:36:26.816Z,97.40
2018-01-16T04:38:57.568Z,97.57
2018-01-16T04:41:28.320Z,97.63
2018-01-16T04:43:59.068Z,97.66
2018-01-16T04:46:29.819Z,97.60
2018-01-16T04:49:00.552Z,97.53
2018-01-16T04:51:31.328Z,97.64
2018-01-16T04:54:02.075Z,97.66
2018-01-16T04:56:32.915Z,97.65
2018-01-16T04:59:03.680Z,97.62
2018-01-16T05:01:34.443Z,97.63
2018-01-16T05:04:05.383Z,97.62
2018-01-16T05:06:36.156Z,97.55
2018-01-16T05:09:06.904Z,97.46
2018-01-16T05:11:37.683Z,97.60
2018-01-16T05:14:08.409Z,97.66
2018-01-16T05:16:39.329Z,97.73
2018-01-16T05:19:10.089Z,97.88
2018-01-16T05:21:40.848Z,97.89
2018-01-16T05:24:11.592Z,97.82
2018-01-16T05:26:42.333Z,97.84
2018-01-16T05:29:13.064Z,97.88
2018-01-16T05:31:43.828Z,97.78
2018-01-16T05:34:14.588Z,97.80
2018-01-16T05:36:45.364Z,97.80
2018-01-16T05:39:16.179Z,97.88
2018-01-16T05:41:46.944Z,97.94
2018-01-16T05:44:17.693Z,97.92
2018-01-16T05:46:48.483Z,97.99
2018-01-16T05:49:19.253Z,98.03
2018-01-16T05:51:50.029Z,98.08
2018-01-16T05:54:20.788Z,98.07
2018-01-16T05:56:51.544Z,98.12
2018-01-16T05:59:22.281Z,98.25
2018-01-16T06:01:53.036Z,98.26
2018-01-16T06:04:23.827Z,98.27
2018-01-16T06:06:54.626Z,98.20
2018-01-16T06:09:25.356Z,98.16
2018-01-16T06:11:56.117Z,98.12
2018-01-16T06:14:26.876Z,98.09
2018-01-16T06:16:57.645Z,98.26
2018-01-16T06:19:28.389Z,98.23
2018-01-16T06:21:59.178Z,98.16
2018-01-16T06:24:29.925Z,98.23
2018-01-16T06:27:00.694Z,98.30
2018-01-16T06:29:31.452Z,98.26
2018-01-16T06:32:02.211Z,98.25
2018-01-16T06:34:32.961Z,98.31
2018-01-16T06:37:03.712Z,98.33
2018-01-16T06:39:34.484Z,98.35
2018-01-16T06:42:05.377Z,98.39
2018-01-16T06:44:36.125Z,98.25
2018-01-16T06:47:06.880Z,98.17
2018-01-16T06:49:37.636Z,98.32
2018-01-16T06:52:08.405Z,98.25
2018-01-16T06:54:39.159Z,98.25
2018-01-16T06:57:09.924Z,98.24
2018-01-16T06:59:40.676Z,98.32
2018-01-16T07:02:11.436Z,98.32
2018-01-16T07:04:42.180Z,98.35
2018-01-16T07:07:12.995Z,98.19
2018-01-16T07:09:43.753Z,98.20
2018-01-16T07:12:14.530Z,98.27
2018-01-16T07:14:45.303Z,98.08
2018-01-16T07:17:16.069Z,98.02
2018-01-16T07:19:46.833Z,98.00
2018-01-16T07:22:17.605Z,97.95
2018-01-16T07:24:48.451Z,98.10
2018-01-16T07:27:19.232Z,98.05
2018-01-16T07:29:49.972Z,98.09
2018-01-16T07:32:20.766Z,98.15
2018-01-16T07:34:51.511Z,98.04
2018-01-16T07:37:22.268Z,97.94
2018-01-16T07:39:53.024Z,97.91
2018-01-16T07:42:23.815Z,97.69
2018-01-16T07:44:54.570Z,97.56
2018-01-16T07:47:25.372Z,97.56
2018-01-16T07:49:56.133Z,97.54
2018-01-16T07:52:26.875Z,97.56
2018-01-16T07:54:57.626Z,97.51
2018-01-16T07:57:28.373Z,97.54
2018-01-16T07:59:59.109Z,97.53
2018-01-16T08:02:29.872Z,97.63
2018-01-16T08:05:00.650Z,97.74
2018-01-16T08:07:31.393Z,97.75
2018-01-16T08:10:02.185Z,97.79
2018-01-16T08:12:32.957Z,97.88
2018-01-16T08:15:03.698Z,97.99
2018-01-16T08:17:34.452Z,98.07
2018-01-16T08:20:05.348Z,98.07
2018-01-16T08:22:36.136Z,97.85
2018-01-16T08:25:06.900Z,97.76
2018-01-16T08:27:37.665Z,97.70
2018-01-16T08:30:08.425Z,97.67
2018-01-16T08:32:39.184Z,97.38
2018-01-16T08:35:09.949Z,97.19
2018-01-16T08:37:41.609Z,96.91
2018-01-16T08:40:12.416Z,96.77
2018-01-16T08:42:43.207Z,96.42
2018-01-16T08:45:13.966Z,95.63
2018-01-16T08:47:44.763Z,95.47
2018-01-16T08:50:15.505Z,95.23
2018-01-16T08:52:46.266Z,95.56
2018-01-16T08:55:17.099Z,95.42
2018-01-16T08:57:47.880Z,94.59
2018-01-16T09:00:18.631Z,94.48
2018-01-16T09:02:49.416Z,94.16
2018-01-16T09:05:20.147Z,93.01
2018-01-16T09:07:51.010Z,91.43
2018-01-16T09:10:21.748Z,91.76
2018-01-16T09:12:52.522Z,89.55
2018-01-16T09:15:23.321Z,90.43
2018-01-16T09:17:54.103Z,89.02
2018-01-16T09:20:24.985Z,87.70
2018-01-16T09:22:55.748Z,88.53
2018-01-16T09:25:29.720Z,89.96
2018-01-16T09:28:00.504Z,89.41
2018-01-16T09:30:31.252Z,88.14
2018-01-16T09:33:03.087Z,87.29
2018-01-16T09:35:33.828Z,88.84
2018-01-16T09:38:05.668Z,89.19
2018-01-16T09:40:36.407Z,88.94
2018-01-16T09:43:07.173Z,89.42
2018-01-16T09:45:37.912Z,88.93
2018-01-16T09:48:08.691Z,89.36
2018-01-16T09:50:39.432Z,89.39
2018-01-16T09:53:10.212Z,89.02
2018-01-16T09:55:40.953Z,88.35
2018-01-16T09:58:11.724Z,88.18
2018-01-16T10:00:42.477Z,88.20
2018-01-16T10:03:13.237Z,88.46
2018-01-16T10:05:43.971Z,89.47
2018-01-16T10:08:14.760Z,89.97
2018-01-16T10:10:45.581Z,89.70
2018-01-16T10:13:16.357Z,89.53
2018-01-16T10:15:47.131Z,89.63
2018-01-16T10:18:17.913Z,88.47
2018-01-16T10:20:48.672Z,87.52
2018-01-16T10:23:19.457Z,88.90
2018-01-16T10:25:50.207Z,89.36
2018-01-16T10:28:20.969Z,89.34
2018-01-16T10:30:51.770Z,89.36
2018-01-16T10:33:22.529Z,89.46
2018-01-16T10:35:53.268Z,89.62
2018-01-16T10:38:24.037Z,89.49
2018-01-16T10:40:54.799Z,88.96
2018-01-16T10:43:25.550Z,88.31
2018-01-16T10:45:56.317Z,87.64
2018-01-16T10:48:27.103Z,88.34
2018-01-16T10:50:57.869Z,89.30
2018-01-16T10:53:28.708Z,88.83
2018-01-16T10:56:06.462Z,89.69
2018-01-16T10:58:37.227Z,89.11
2018-01-16T11:01:07.978Z,89.77
2018-01-16T11:03:38.757Z,89.51
2018-01-16T11:06:09.512Z,90.31
2018-01-16T11:08:40.277Z,90.18
2018-01-16T11:11:11.036Z,90.51
2018-01-16T11:13:41.831Z,90.12
2018-01-16T11:16:12.608Z,89.67
2018-01-16T11:18:43.387Z,89.18
2018-01-16T11:21:14.140Z,88.95
2018-01-16T11:23:44.892Z,88.57
2018-01-16T11:26:15.713Z,88.36
2018-01-16T11:28:46.502Z,88.97
2018-01-16T11:31:17.353Z,89.27
2018-01-16T11:33:48.218Z,89.27
2018-01-16T11:36:19.013Z,88.70
2018-01-16T11:38:49.780Z,87.65
2018-01-16T11:41:20.544Z,87.68
2018-01-16T11:43:51.294Z,88.51
2018-01-16T11:46:22.063Z,88.95
2018-01-16T11:48:52.925Z,87.82
2018-01-16T11:51:23.688Z,87.12
2018-01-16T11:53:54.499Z,87.12
2018-01-16T11:56:25.312Z,87.29
2018-01-16T11:58:56.074Z,87.49
2018-01-16T12:01:26.844Z,87.05
2018-01-16T12:03:57.641Z,87.42
2018-01-16T12:06:28.492Z,87.60
2018-01-16T12:08:59.300Z,87.49
2018-01-16T12:11:30.068Z,87.57
2018-01-16T12:14:00.829Z,87.86
2018-01-16T12:16:31.578Z,87.11
2018-01-16T12:19:02.345Z,87.08
2018-01-16T12:21:33.104Z,87.13
2018-01-16T12:24:03.871Z,85.92
2018-01-16T12:26:34.650Z,86.90
2018-01-16T12:29:05.411Z,86.79
2018-01-16T12:31:36.191Z,86.65
2018-01-16T12:34:06.949Z,87.40
2018-01-16T12:36:37.716Z,88.69
2018-01-16T12:39:08.477Z,89.20
2018-01-16T12:41:39.247Z,89.32
2018-01-16T12:44:10.130Z,89.37
2018-01-16T12:46:40.875Z,89.96
2018-01-16T12:49:12.425Z,89.98
2018-01-16T12:51:43.177Z,90.16
2018-01-16T12:54:13.957Z,90.69
2018-01-16T12:56:44.735Z,90.52
2018-01-16T12:59:15.532Z,89.85
2018-01-16T13:01:46.288Z,90.11
2018-01-16T13:04:17.314Z,90.16
2018-01-16T13:06:48.092Z,89.02
2018-01-16T13:09:18.852Z,89.00
2018-01-16T13:11:49.624Z,88.50
2018-01-16T13:16:57.877Z,87.68
2018-01-16T13:19:28.640Z,88.05
2018-01-16T13:21:59.397Z,88.25
2018-01-16T13:24:30.164Z,88.07
2018-01-16T13:27:00.943Z,87.25
2018-01-16T13:29:32.118Z,87.35
2018-01-16T13:32:03.958Z,87.40
2018-01-16T13:34:34.820Z,88.38
2018-01-16T13:37:05.629Z,89.22
2018-01-16T13:39:36.494Z,90.68
2018-01-16T13:42:07.312Z,91.88
2018-01-16T13:44:38.162Z,90.75
2018-01-16T13:47:08.919Z,90.94
2018-01-16T13:49:39.688Z,90.82
2018-01-16T13:52:10.433Z,90.78
2018-01-16T13:54:41.211Z,90.03
2018-01-16T13:57:11.963Z,90.14
2018-01-16T13:59:42.780Z,89.69
2018-01-16T14:02:13.587Z,89.14
2018-01-16T14:07:45.252Z,87.43
2018-01-16T14:10:16.108Z,85.14
2018-01-16T14:12:46.872Z,84.21
2018-01-16T14:15:17.669Z,85.37
2018-01-16T14:17:48.516Z,86.12
2018-01-16T14:20:19.386Z,85.26
2018-01-16T14:22:50.136Z,86.13
2018-01-16T14:25:28.804Z,83.67
2018-01-16T14:30:57.522Z,83.27
2018-01-16T14:33:28.322Z,83.32
2018-01-16T14:35:59.195Z,83.21
2018-01-16T14:38:30.006Z,83.02
2018-01-16T14:41:00.853Z,83.54
2018-01-16T14:43:31.663Z,82.82
2018-01-16T14:46:02.689Z,81.89
2018-01-16T14:48:33.448Z,83.08
2018-01-16T14:51:04.217Z,83.40
2018-01-16T14:53:35.031Z,83.67
2018-01-16T14:56:06.232Z,82.39
2018-01-16T14:58:37.102Z,82.35
2018-01-16T15:01:07.897Z,82.71
2018-01-16T15:03:38.677Z,83.08
2018-01-16T15:06:09.519Z,82.86
2018-01-16T15:08:40.372Z,83.23
2018-01-16T15:11:11.294Z,83.55
2018-01-16T15:13:42.045Z,82.91
2018-01-16T15:16:12.825Z,83.97
2018-01-16T15:18:43.653Z,83.34
2018-01-16T15:21:14.555Z,82.44
2018-01-16T15:23:45.349Z,83.10
2018-01-16T15:26:16.118Z,83.37
2018-01-16T15:28:47.016Z,83.42
2018-01-16T15:31:17.760Z,84.20
2018-01-16T15:33:48.533Z,84.53
2018-01-16T15:36:19.300Z,84.45
2018-01-16T15:38:50.071Z,84.03
2018-01-16T15:41:20.853Z,84.80
2018-01-16T15:43:51.662Z,84.49
2018-01-16T15:46:22.716Z,84.68
2018-01-16T15:48:53.560Z,84.81
2018-01-16T15:51:24.376Z,84.55
2018-01-16T15:53:55.172Z,83.40
2018-01-16T15:56:25.988Z,83.88
2018-01-16T15:58:56.755Z,84.15
2018-01-16T16:01:27.520Z,83.25
2018-01-16T16:03:58.272Z,84.07
2018-01-16T16:06:29.044Z,83.98
2018-01-16T16:09:00.821Z,83.37
2018-01-16T16:11:31.636Z,83.79
2018-01-16T16:14:02.420Z,83.46
2018-01-16T16:16:33.474Z,83.53
2018-01-16T16:19:04.241Z,83.85
2018-01-16T16:21:35.018Z,83.13
2018-01-16T16:24:05.771Z,84.03
2018-01-16T16:26:36.567Z,82.83
2018-01-16T16:29:07.323Z,83.95
2018-01-16T16:31:38.099Z,83.66
2018-01-16T16:34:08.875Z,82.81
2018-01-16T16:36:39.639Z,83.04
2018-01-16T16:39:10.451Z,83.63
2018-01-16T16:41:41.223Z,83.44
2018-01-16T16:44:11.996Z,83.63
2018-01-16T16:46:42.771Z,84.69
2018-01-16T16:49:13.516Z,84.03
2018-01-16T16:51:44.299Z,84.45
2018-01-16T16:54:15.079Z,84.67
2018-01-16T16:56:45.991Z,85.42
2018-01-16T16:59:16.805Z,84.42
2018-01-16T17:01:47.596Z,85.05
2018-01-16T17:04:18.386Z,84.91
2018-01-16T17:06:49.174Z,84.08
2018-01-16T17:15:14.920Z,85.52
2018-01-16T17:17:45.677Z,85.03
2018-01-16T17:20:16.448Z,84.11
2018-01-16T17:22:47.209Z,84.20
2018-01-16T17:25:18.015Z,84.44
2018-01-16T17:27:48.784Z,84.23
2018-01-16T17:30:19.621Z,84.27
2018-01-16T17:32:50.380Z,84.16
2018-01-16T17:35:21.126Z,84.80
2018-01-16T17:37:51.912Z,84.29
2018-01-16T17:40:22.715Z,84.56
2018-01-16T17:42:53.486Z,84.64
2018-01-16T17:45:24.303Z,84.15
2018-01-16T17:47:55.056Z,84.24
2018-01-16T17:50:25.818Z,84.87
2018-01-16T17:52:56.604Z,84.73
2018-01-16T17:55:42.394Z,84.80
2018-01-16T17:58:13.348Z,84.84
2018-01-16T18:00:44.186Z,84.33
2018-01-16T18:03:15.064Z,83.92
2018-01-16T18:05:45.808Z,84.32
2018-01-16T18:08:16.571Z,84.04
2018-01-16T18:10:47.391Z,84.36
2018-01-16T18:13:18.164Z,84.58
2018-01-16T18:15:48.922Z,84.15
2018-01-16T18:18:19.696Z,84.34
2018-01-16T18:20:50.471Z,83.83
2018-01-16T18:23:21.245Z,84.01
2018-01-16T18:25:52.051Z,84.38
2018-01-16T18:28:22.792Z,84.95
2018-01-16T18:30:53.615Z,84.67
2018-01-16T18:33:24.392Z,83.83
2018-01-16T18:35:55.159Z,84.34
2018-01-16T18:38:25.969Z,84.28
2018-01-16T18:40:56.867Z,84.50
2018-01-16T18:43:30.835Z,83.97
2018-01-16T18:46:01.700Z,83.94
2018-01-16T18:48:32.541Z,83.82
2018-01-16T18:51:03.394Z,84.44
2018-01-16T18:53:34.224Z,84.24
2018-01-16T18:56:05.047Z,84.03
2018-01-16T18:58:35.884Z,84.33
2018-01-16T19:01:06.726Z,84.05
2018-01-16T19:03:39.566Z,84.33
2018-01-16T19:06:10.561Z,84.14
2018-01-16T19:08:41.314Z,84.88
2018-01-16T19:11:12.128Z,83.99
2018-01-16T19:13:43.120Z,84.77
2018-01-16T19:16:13.927Z,84.63
2018-01-16T19:18:44.700Z,84.65
2018-01-16T19:21:15.448Z,85.40
2018-01-16T19:23:46.221Z,85.67
2018-01-16T19:26:17.005Z,85.46
2018-01-16T19:28:47.772Z,85.30
2018-01-16T19:31:18.546Z,86.05
2018-01-16T19:33:49.314Z,86.46
2018-01-16T19:36:20.126Z,87.14
2018-01-16T19:38:50.996Z,86.53
2018-01-16T19:41:21.803Z,86.67
2018-01-16T19:43:52.623Z,86.88
2018-01-16T19:46:23.410Z,86.71
2018-01-16T19:48:54.176Z,86.89
2018-01-16T19:51:24.988Z,86.86
2018-01-16T19:53:55.848Z,86.49
2018-01-16T19:56:26.680Z,86.33
2018-01-16T19:58:57.449Z,86.52
2018-01-16T20:01:28.320Z,86.33
2018-01-16T20:03:59.175Z,86.78
2018-01-16T20:06:30.028Z,86.26
2018-01-16T20:09:00.850Z,86.81
2018-01-16T20:11:31.662Z,86.67
2018-01-16T20:14:02.493Z,86.65
2018-01-16T20:16:51.835Z,86.61
2018-01-16T20:19:22.658Z,86.62
2018-01-16T20:21:53.483Z,86.22
2018-01-16T20:24:24.306Z,86.34
2018-01-16T20:26:55.206Z,86.00
2018-01-16T20:29:26.094Z,86.02
2018-01-16T20:31:56.896Z,85.61
2018-01-16T20:34:27.678Z,85.59
2018-01-16T20:36:58.456Z,85.30
2018-01-16T20:39:29.328Z,85.36
2018-01-16T20:42:00.088Z,84.38
2018-01-16T20:44:30.905Z,83.33
2018-01-16T20:47:01.743Z,81.94
2018-01-16T20:49:32.538Z,82.71
2018-01-16T20:52:10.240Z,81.42
2018-01-16T20:54:41.004Z,81.14
2018-01-16T20:57:11.802Z,81.11
2018-01-16T20:59:42.595Z,80.62
2018-01-16T21:02:13.405Z,79.74
2018-01-16T21:04:44.242Z,80.28
2018-01-16T21:07:15.020Z,79.92
2018-01-16T21:09:45.757Z,78.50
2018-01-16T21:12:16.580Z,78.91
2018-01-16T21:14:47.413Z,78.46
2018-01-16T21:17:18.210Z,78.72
2018-01-16T21:19:48.958Z,78.23
2018-01-16T21:22:19.764Z,78.67
2018-01-16T21:24:50.516Z,78.32
2018-01-16T21:27:21.281Z,78.57
2018-01-16T21:29:52.082Z,78.86
2018-01-16T21:32:22.875Z,79.26
2018-01-16T21:34:53.647Z,77.96
2018-01-16T21:37:24.512Z,78.51
2018-01-16T21:39:55.317Z,79.04
2018-01-16T21:42:26.133Z,77.48
2018-01-16T21:44:56.942Z,78.54
2018-01-16T21:47:27.823Z,79.71
2018-01-16T21:49:58.602Z,79.56
2018-01-16T21:52:29.417Z,80.04
2018-01-16T21:55:00.168Z,79.54
2018-01-16T21:57:30.908Z,78.63
2018-01-16T22:00:01.724Z,79.32
2018-01-16T22:02:32.552Z,80.13
2018-01-16T22:05:03.311Z,78.75
2018-01-16T22:07:34.081Z,79.51
2018-01-16T22:10:04.840Z,79.17
2018-01-16T22:12:35.604Z,79.53
2018-01-16T22:15:06.390Z,79.67
2018-01-16T22:17:37.186Z,80.26
2018-01-16T22:20:07.986Z,79.25
2018-01-16T22:22:38.794Z,79.80
2018-01-16T22:25:09.536Z,79.80
2018-01-16T22:30:40.068Z,80.16
2018-01-16T22:33:10.867Z,80.70
2018-01-16T22:35:41.621Z,81.47
2018-01-16T22:38:12.384Z,81.18
2018-01-16T22:40:43.223Z,81.21
2018-01-16T22:43:14.024Z,80.99
2018-01-16T22:45:44.799Z,82.10
2018-01-16T22:48:15.861Z,83.07
2018-01-16T22:50:46.655Z,83.87
2018-01-16T22:53:17.431Z,83.64
2018-01-16T22:55:48.208Z,84.06
2018-01-16T22:58:18.957Z,84.52
2018-01-16T23:00:49.711Z,85.11
2018-01-16T23:03:20.558Z,85.13
2018-01-16T23:05:51.309Z,85.19
2018-01-16T23:08:22.250Z,84.42
2018-01-16T23:10:53.004Z,84.29
2018-01-16T23:13:23.801Z,84.04
2018-01-16T23:15:54.562Z,84.36
2018-01-16T23:18:25.357Z,84.54
2018-01-16T23:20:56.130Z,84.80
2018-01-16T23:23:26.896Z,84.64
2018-01-16T23:25:57.664Z,85.03
2018-01-16T23:28:28.456Z,84.92
2018-01-16T23:30:59.222Z,85.17
2018-01-16T23:33:29.988Z,85.42
2018-01-16T23:36:00.756Z,84.83
2018-01-16T23:38:31.521Z,84.72
2018-01-16T23:41:02.389Z,84.16
2018-01-16T23:43:33.148Z,84.08
2018-01-16T23:46:03.889Z,83.74
2018-01-16T23:48:34.643Z,84.17
2018-01-16T23:51:05.404Z,83.37
2018-01-16T23:53:36.242Z,83.16
2018-01-16T23:56:07.020Z,82.93
2018-01-16T23:58:37.805Z,82.99
